Main page
METAR-TAF:

METAR-TAF

Airports :

Naval Station Rota

Rota, Spain

latitude: 36-39N, longitude: 006-21W, elevation: 26 m

Current weather observation

The report was made 27 minutes ago, at 06:00 UTC
Wind 4 kt from the North/Northeast, varying between North and East/Northeast
Temperature 24°C
Humidity 100%
Pressure 1011 hPa
Visibility 10 km or more
Few clouds at a height of 2000 ft

METAR: LERT 130600Z 03004KT 350V060 9999 FEW020 24/24 Q1011 NOSIG

Time: 08:27 (06:27 UTC)

Forecast

The report was made 4 hours and 27 minutes ago, at 02:00 UTC
Forecast valid from 13 at 03 UTC to 14 at 03 UTC
Wind 3 kt from variable directions
Visibility 10 km or more
no clouds below 1500 m and no cumulonimbus
Probability 40% :
Temporary
from 13 at 03 UTC to 13 at 10 UTC
Scattered clouds at a height of 5000 ft, Cumulonimbus.
thunderstorm, rain
Becoming
from 13 at 06 UTC to 13 at 08 UTC
Wind 10 kt from the North

TAF: LERT 130200Z 1303/1403 VRB03KT CAVOK TX37/1313Z TN23/1305Z PROB40 TEMPO 1303/1310 TSRA SCT050CB BECMG 1306/1308 01010KT

Weather observations and forecasts of more than 4000 airports (METAR and TAF reports).

The available stations are represented by yellow and red dots on the map.

Hover mouse over dot to see the name of the station.

Then click to see weather observations and forecasts.

To change the map : click on the green buttons with a black cross to zoom in, on the green button with a dash to zoom out, or on the green arrows for adjacent maps.


METAR-TAF: